sensor_id;sensor_type;location;lat;lon;timestamp;temperature;humidity
23669;DHT22;12011;47.422;15.018;2023-05-24T00:01:10;12.90;99.90
23669;DHT22;12011;47.422;15.018;2023-05-24T00:03:39;12.90;99.90
23669;DHT22;12011;47.422;15.018;2023-05-24T00:06:11;12.90;99.90
23669;DHT22;12011;47.422;15.018;2023-05-24T00:08:42;12.90;99.90
23669;DHT22;12011;47.422;15.018;2023-05-24T00:11:12;12.80;99.90
23669;DHT22;12011;47.422;15.018;2023-05-24T00:13:41;12.80;99.90
23669;DHT22;12011;47.422;15.018;2023-05-24T00:16:14;12.90;99.90
23669;DHT22;12011;47.422;15.018;2023-05-24T00:18:43;12.80;99.90
23669;DHT22;12011;47.422;15.018;2023-05-24T00:21:13;12.80;99.90
23669;DHT22;12011;47.422;15.018;2023-05-24T00:23:43;12.70;99.90
23669;DHT22;12011;47.422;15.018;2023-05-24T00:26:12;12.70;99.90
23669;DHT22;12011;47.422;15.018;2023-05-24T00:28:48;12.80;99.90
23669;DHT22;12011;47.422;15.018;2023-05-24T00:31:21;12.80;99.90
23669;DHT22;12011;47.422;15.018;2023-05-24T00:33:50;12.70;99.90
23669;DHT22;12011;47.422;15.018;2023-05-24T00:36:20;12.60;99.90
23669;DHT22;12011;47.422;15.018;2023-05-24T00:38:50;12.60;99.90
23669;DHT22;12011;47.422;15.018;2023-05-24T00:41:19;12.50;99.90
23669;DHT22;12011;47.422;15.018;2023-05-24T00:43:49;12.40;99.90
23669;DHT22;12011;47.422;15.018;2023-05-24T00:46:24;12.40;99.90
23669;DHT22;12011;47.422;15.018;2023-05-24T00:48:56;12.40;99.90
23669;DHT22;12011;47.422;15.018;2023-05-24T00:51:26;12.50;99.90
23669;DHT22;12011;47.422;15.018;2023-05-24T00:53:59;12.40;99.90
23669;DHT22;12011;47.422;15.018;2023-05-24T00:56:28;12.30;99.90
23669;DHT22;12011;47.422;15.018;2023-05-24T00:58:59;12.20;99.90
23669;DHT22;12011;47.422;15.018;2023-05-24T01:01:31;12.10;99.90
23669;DHT22;12011;47.422;15.018;2023-05-24T01:04:02;12.00;99.90
23669;DHT22;12011;47.422;15.018;2023-05-24T01:06:41;12.00;99.90
23669;DHT22;12011;47.422;15.018;2023-05-24T01:09:28;12.00;99.90
23669;DHT22;12011;47.422;15.018;2023-05-24T01:12:14;12.00;99.90
23669;DHT22;12011;47.422;15.018;2023-05-24T01:14:57;12.10;99.90
23669;DHT22;12011;47.422;15.018;2023-05-24T01:17:45;12.10;99.90
23669;DHT22;12011;47.422;15.018;2023-05-24T01:20:20;12.20;99.90
23669;DHT22;12011;47.422;15.018;2023-05-24T01:23:12;12.30;99.90
23669;DHT22;12011;47.422;15.018;2023-05-24T01:26:06;12.20;99.90
23669;DHT22;12011;47.422;15.018;2023-05-24T01:28:47;12.30;99.90
23669;DHT22;12011;47.422;15.018;2023-05-24T01:31:17;12.40;99.90
23669;DHT22;12011;47.422;15.018;2023-05-24T01:33:49;12.40;99.90
23669;DHT22;12011;47.422;15.018;2023-05-24T01:36:19;12.30;99.90
23669;DHT22;12011;47.422;15.018;2023-05-24T01:38:50;12.30;99.90
23669;DHT22;12011;47.422;15.018;2023-05-24T01:41:35;12.30;99.90
23669;DHT22;12011;47.422;15.018;2023-05-24T01:44:18;12.40;99.90
23669;DHT22;12011;47.422;15.018;2023-05-24T01:47:01;12.40;99.90
23669;DHT22;12011;47.422;15.018;2023-05-24T01:49:39;12.40;99.90
23669;DHT22;12011;47.422;15.018;2023-05-24T01:52:15;12.50;99.90
23669;DHT22;12011;47.422;15.018;2023-05-24T01:54:51;12.40;99.90
23669;DHT22;12011;47.422;15.018;2023-05-24T01:57:22;12.40;99.90
23669;DHT22;12011;47.422;15.018;2023-05-24T01:59:57;12.30;99.90
23669;DHT22;12011;47.422;15.018;2023-05-24T02:02:29;12.30;99.90
23669;DHT22;12011;47.422;15.018;2023-05-24T02:04:59;12.30;99.90
23669;DHT22;12011;47.422;15.018;2023-05-24T02:07:29;12.40;99.90
23669;DHT22;12011;47.422;15.018;2023-05-24T02:09:58;12.40;99.90
23669;DHT22;12011;47.422;15.018;2023-05-24T02:12:28;12.40;99.90
23669;DHT22;12011;47.422;15.018;2023-05-24T02:15:00;12.40;99.90
23669;DHT22;12011;47.422;15.018;2023-05-24T02:17:30;12.30;99.90
23669;DHT22;12011;47.422;15.018;2023-05-24T02:20:01;12.30;99.90
23669;DHT22;12011;47.422;15.018;2023-05-24T02:22:32;12.20;99.90
23669;DHT22;12011;47.422;15.018;2023-05-24T02:25:02;12.20;99.90
23669;DHT22;12011;47.422;15.018;2023-05-24T02:27:33;12.20;99.90
23669;DHT22;12011;47.422;15.018;2023-05-24T02:30:06;12.20;99.90
23669;DHT22;12011;47.422;15.018;2023-05-24T02:32:36;12.20;99.90
23669;DHT22;12011;47.422;15.018;2023-05-24T02:35:06;12.20;99.90
23669;DHT22;12011;47.422;15.018;2023-05-24T02:37:36;12.20;99.90
23669;DHT22;12011;47.422;15.018;2023-05-24T02:40:07;12.20;99.90
23669;DHT22;12011;47.422;15.018;2023-05-24T02:42:37;12.20;99.90
23669;DHT22;12011;47.422;15.018;2023-05-24T02:45:10;12.10;99.90
23669;DHT22;12011;47.422;15.018;2023-05-24T02:47:39;12.20;99.90
23669;DHT22;12011;47.422;15.018;2023-05-24T02:50:10;12.20;99.90
23669;DHT22;12011;47.422;15.018;2023-05-24T02:52:39;12.20;99.90
23669;DHT22;12011;47.422;15.018;2023-05-24T02:55:09;12.10;99.90
23669;DHT22;12011;47.422;15.018;2023-05-24T02:57:38;12.10;99.90
23669;DHT22;12011;47.422;15.018;2023-05-24T03:00:12;12.10;99.90
23669;DHT22;12011;47.422;15.018;2023-05-24T03:02:44;12.10;99.90
23669;DHT22;12011;47.422;15.018;2023-05-24T03:05:16;12.10;99.90
23669;DHT22;12011;47.422;15.018;2023-05-24T03:07:45;12.20;99.90
23669;DHT22;12011;47.422;15.018;2023-05-24T03:10:15;12.20;99.90
23669;DHT22;12011;47.422;15.018;2023-05-24T03:12:45;12.20;99.90
23669;DHT22;12011;47.422;15.018;2023-05-24T03:15:17;12.20;99.90
23669;DHT22;12011;47.422;15.018;2023-05-24T03:17:47;12.10;99.90
23669;DHT22;12011;47.422;15.018;2023-05-24T03:20:17;12.10;99.90
23669;DHT22;12011;47.422;15.018;2023-05-24T03:22:48;12.10;99.90
23669;DHT22;12011;47.422;15.018;2023-05-24T03:25:18;12.10;99.90
23669;DHT22;12011;47.422;15.018;2023-05-24T03:27:48;12.20;99.90
23669;DHT22;12011;47.422;15.018;2023-05-24T03:30:21;12.20;99.90
23669;DHT22;12011;47.422;15.018;2023-05-24T03:32:54;12.10;99.90
23669;DHT22;12011;47.422;15.018;2023-05-24T03:35:23;12.10;99.90
23669;DHT22;12011;47.422;15.018;2023-05-24T03:37:53;12.10;99.90
23669;DHT22;12011;47.422;15.018;2023-05-24T03:40:25;12.20;99.90
23669;DHT22;12011;47.422;15.018;2023-05-24T03:43:03;12.30;99.90
23669;DHT22;12011;47.422;15.018;2023-05-24T03:46:05;12.40;99.90
23669;DHT22;12011;47.422;15.018;2023-05-24T03:48:35;12.40;99.90
23669;DHT22;12011;47.422;15.018;2023-05-24T03:51:04;12.50;99.90
23669;DHT22;12011;47.422;15.018;2023-05-24T03:53:34;12.60;99.90
23669;DHT22;12011;47.422;15.018;2023-05-24T03:56:04;12.70;99.90
23669;DHT22;12011;47.422;15.018;2023-05-24T03:58:34;12.70;99.90
23669;DHT22;12011;47.422;15.018;2023-05-24T04:01:08;12.70;99.90
23669;DHT22;12011;47.422;15.018;2023-05-24T04:03:37;12.80;99.90
23669;DHT22;12011;47.422;15.018;2023-05-24T04:06:07;12.80;99.90
23669;DHT22;12011;47.422;15.018;2023-05-24T04:08:36;12.80;99.90
23669;DHT22;12011;47.422;15.018;2023-05-24T04:11:06;12.90;99.90
23669;DHT22;12011;47.422;15.018;2023-05-24T04:13:38;12.90;99.90
23669;DHT22;12011;47.422;15.018;2023-05-24T04:16:10;12.90;99.90
23669;DHT22;12011;47.422;15.018;2023-05-24T04:18:40;13.00;99.90
23669;DHT22;12011;47.422;15.018;2023-05-24T04:21:11;13.30;99.90
23669;DHT22;12011;47.422;15.018;2023-05-24T04:23:41;13.30;99.90
23669;DHT22;12011;47.422;15.018;2023-05-24T04:26:11;13.30;99.90
23669;DHT22;12011;47.422;15.018;2023-05-24T04:28:40;13.30;99.90
23669;DHT22;12011;47.422;15.018;2023-05-24T04:31:16;13.40;99.90
23669;DHT22;12011;47.422;15.018;2023-05-24T04:33:46;13.50;99.90
23669;DHT22;12011;47.422;15.018;2023-05-24T04:36:16;13.50;99.90
23669;DHT22;12011;47.422;15.018;2023-05-24T04:38:45;13.60;99.90
23669;DHT22;12011;47.422;15.018;2023-05-24T04:41:15;13.70;99.90
23669;DHT22;12011;47.422;15.018;2023-05-24T04:43:45;13.90;99.90
23669;DHT22;12011;47.422;15.018;2023-05-24T04:46:18;13.90;99.90
23669;DHT22;12011;47.422;15.018;2023-05-24T04:48:47;13.90;99.90
23669;DHT22;12011;47.422;15.018;2023-05-24T04:51:17;14.00;99.90
23669;DHT22;12011;47.422;15.018;2023-05-24T04:53:46;14.00;99.90
23669;DHT22;12011;47.422;15.018;2023-05-24T04:56:16;14.10;99.90
23669;DHT22;12011;47.422;15.018;2023-05-24T04:58:46;14.10;99.90
23669;DHT22;12011;47.422;15.018;2023-05-24T05:01:19;14.10;99.90
23669;DHT22;12011;47.422;15.018;2023-05-24T05:03:48;14.10;99.90
23669;DHT22;12011;47.422;15.018;2023-05-24T05:06:18;14.10;99.90
23669;DHT22;12011;47.422;15.018;2023-05-24T05:08:47;14.10;99.90
23669;DHT22;12011;47.422;15.018;2023-05-24T05:11:17;14.20;99.90
23669;DHT22;12011;47.422;15.018;2023-05-24T05:13:47;14.30;99.90
23669;DHT22;12011;47.422;15.018;2023-05-24T05:16:19;14.30;99.90
23669;DHT22;12011;47.422;15.018;2023-05-24T05:18:48;14.30;99.90
23669;DHT22;12011;47.422;15.018;2023-05-24T05:21:18;14.40;99.90
23669;DHT22;12011;47.422;15.018;2023-05-24T05:23:47;14.40;99.90
23669;DHT22;12011;47.422;15.018;2023-05-24T05:26:17;14.50;99.90
23669;DHT22;12011;47.422;15.018;2023-05-24T05:28:47;14.50;99.90
23669;DHT22;12011;47.422;15.018;2023-05-24T05:31:19;14.60;99.90
23669;DHT22;12011;47.422;15.018;2023-05-24T05:33:49;14.50;99.90
23669;DHT22;12011;47.422;15.018;2023-05-24T05:36:18;14.60;99.90
23669;DHT22;12011;47.422;15.018;2023-05-24T05:38:48;14.60;99.90
23669;DHT22;12011;47.422;15.018;2023-05-24T05:41:17;14.60;99.90
23669;DHT22;12011;47.422;15.018;2023-05-24T05:43:49;14.60;99.90
23669;DHT22;12011;47.422;15.018;2023-05-24T05:46:21;14.60;99.90
23669;DHT22;12011;47.422;15.018;2023-05-24T05:48:50;14.50;99.90
23669;DHT22;12011;47.422;15.018;2023-05-24T05:51:20;14.50;99.90
23669;DHT22;12011;47.422;15.018;2023-05-24T05:53:51;14.50;99.90
23669;DHT22;12011;47.422;15.018;2023-05-24T05:56:20;14.40;99.90
23669;DHT22;12011;47.422;15.018;2023-05-24T05:58:50;14.50;99.90
23669;DHT22;12011;47.422;15.018;2023-05-24T06:01:25;14.40;99.90
23669;DHT22;12011;47.422;15.018;2023-05-24T06:03:54;14.40;99.90
23669;DHT22;12011;47.422;15.018;2023-05-24T06:06:24;14.40;99.90
23669;DHT22;12011;47.422;15.018;2023-05-24T06:08:53;14.40;99.90
23669;DHT22;12011;47.422;15.018;2023-05-24T06:11:23;14.40;99.90
23669;DHT22;12011;47.422;15.018;2023-05-24T06:13:52;14.40;99.90
23669;DHT22;12011;47.422;15.018;2023-05-24T06:16:24;14.10;99.90
23669;DHT22;12011;47.422;15.018;2023-05-24T06:18:54;14.40;99.90
23669;DHT22;12011;47.422;15.018;2023-05-24T06:21:24;14.40;99.90
23669;DHT22;12011;47.422;15.018;2023-05-24T06:23:56;14.40;99.90
23669;DHT22;12011;47.422;15.018;2023-05-24T06:26:25;14.50;99.90
23669;DHT22;12011;47.422;15.018;2023-05-24T06:28:55;14.50;99.90
23669;DHT22;12011;47.422;15.018;2023-05-24T06:31:27;14.50;99.90
23669;DHT22;12011;47.422;15.018;2023-05-24T06:33:58;14.60;99.90
23669;DHT22;12011;47.422;15.018;2023-05-24T06:36:27;14.60;99.90
23669;DHT22;12011;47.422;15.018;2023-05-24T06:38:59;14.70;99.90
23669;DHT22;12011;47.422;15.018;2023-05-24T06:41:29;14.70;99.90
23669;DHT22;12011;47.422;15.018;2023-05-24T06:43:58;14.70;99.90
23669;DHT22;12011;47.422;15.018;2023-05-24T06:46:30;14.70;99.90
23669;DHT22;12011;47.422;15.018;2023-05-24T06:49:00;14.70;99.90
23669;DHT22;12011;47.422;15.018;2023-05-24T06:51:30;14.70;99.90
23669;DHT22;12011;47.422;15.018;2023-05-24T06:54:01;14.70;99.90
23669;DHT22;12011;47.422;15.018;2023-05-24T06:56:31;14.70;99.90
23669;DHT22;12011;47.422;15.018;2023-05-24T06:59:01;14.70;99.90
23669;DHT22;12011;47.422;15.018;2023-05-24T07:01:34;14.70;99.90
23669;DHT22;12011;47.422;15.018;2023-05-24T07:04:04;14.70;99.90
23669;DHT22;12011;47.422;15.018;2023-05-24T07:06:34;14.70;99.90
23669;DHT22;12011;47.422;15.018;2023-05-24T07:09:04;14.70;99.90
23669;DHT22;12011;47.422;15.018;2023-05-24T07:11:35;14.80;99.90
23669;DHT22;12011;47.422;15.018;2023-05-24T07:14:05;14.70;99.90
23669;DHT22;12011;47.422;15.018;2023-05-24T07:16:37;14.70;99.90
23669;DHT22;12011;47.422;15.018;2023-05-24T07:19:06;14.80;99.90
23669;DHT22;12011;47.422;15.018;2023-05-24T07:21:36;14.80;99.90
23669;DHT22;12011;47.422;15.018;2023-05-24T07:24:05;14.70;99.90
23669;DHT22;12011;47.422;15.018;2023-05-24T07:26:35;14.70;99.90
23669;DHT22;12011;47.422;15.018;2023-05-24T07:29:05;14.80;99.90
23669;DHT22;12011;47.422;15.018;2023-05-24T07:31:37;14.90;99.90
23669;DHT22;12011;47.422;15.018;2023-05-24T07:34:06;14.90;99.90
23669;DHT22;12011;47.422;15.018;2023-05-24T07:36:36;14.90;99.90
23669;DHT22;12011;47.422;15.018;2023-05-24T07:39:06;15.00;99.90
23669;DHT22;12011;47.422;15.018;2023-05-24T07:41:36;15.00;99.90
23669;DHT22;12011;47.422;15.018;2023-05-24T07:44:05;15.00;99.90
23669;DHT22;12011;47.422;15.018;2023-05-24T07:46:37;15.10;99.90
23669;DHT22;12011;47.422;15.018;2023-05-24T07:49:07;15.20;99.90
23669;DHT22;12011;47.422;15.018;2023-05-24T07:51:37;15.20;99.90
23669;DHT22;12011;47.422;15.018;2023-05-24T07:54:06;15.30;99.90
23669;DHT22;12011;47.422;15.018;2023-05-24T07:56:36;15.30;99.90
23669;DHT22;12011;47.422;15.018;2023-05-24T07:59:05;15.30;99.90
23669;DHT22;12011;47.422;15.018;2023-05-24T08:01:38;15.30;99.90
23669;DHT22;12011;47.422;15.018;2023-05-24T08:04:08;15.30;99.90
23669;DHT22;12011;47.422;15.018;2023-05-24T08:06:37;15.40;99.90
23669;DHT22;12011;47.422;15.018;2023-05-24T08:09:07;15.40;99.90
23669;DHT22;12011;47.422;15.018;2023-05-24T08:11:37;15.40;99.90
23669;DHT22;12011;47.422;15.018;2023-05-24T08:14:06;15.40;99.90
23669;DHT22;12011;47.422;15.018;2023-05-24T08:16:39;15.60;99.90
23669;DHT22;12011;47.422;15.018;2023-05-24T08:19:08;15.80;99.90
23669;DHT22;12011;47.422;15.018;2023-05-24T08:21:38;15.80;99.90
23669;DHT22;12011;47.422;15.018;2023-05-24T08:24:08;15.90;99.90
23669;DHT22;12011;47.422;15.018;2023-05-24T08:26:38;16.00;99.90
23669;DHT22;12011;47.422;15.018;2023-05-24T08:29:08;16.20;99.90
23669;DHT22;12011;47.422;15.018;2023-05-24T08:31:40;16.20;99.90
23669;DHT22;12011;47.422;15.018;2023-05-24T08:34:10;16.10;99.90
23669;DHT22;12011;47.422;15.018;2023-05-24T08:36:40;16.00;99.90
23669;DHT22;12011;47.422;15.018;2023-05-24T08:39:12;15.80;99.90
23669;DHT22;12011;47.422;15.018;2023-05-24T08:41:42;15.70;99.90
23669;DHT22;12011;47.422;15.018;2023-05-24T08:44:12;15.70;99.90
23669;DHT22;12011;47.422;15.018;2023-05-24T08:46:45;15.70;99.90
23669;DHT22;12011;47.422;15.018;2023-05-24T08:49:15;15.70;99.90
23669;DHT22;12011;47.422;15.018;2023-05-24T08:51:47;15.60;99.90
23669;DHT22;12011;47.422;15.018;2023-05-24T08:54:18;15.60;99.90
23669;DHT22;12011;47.422;15.018;2023-05-24T08:56:48;15.60;99.90
23669;DHT22;12011;47.422;15.018;2023-05-24T08:59:19;15.60;99.90
23669;DHT22;12011;47.422;15.018;2023-05-24T09:01:53;15.60;99.90
23669;DHT22;12011;47.422;15.018;2023-05-24T09:04:23;15.60;99.90
23669;DHT22;12011;47.422;15.018;2023-05-24T09:06:55;15.60;99.90
23669;DHT22;12011;47.422;15.018;2023-05-24T09:09:27;15.70;99.90
23669;DHT22;12011;47.422;15.018;2023-05-24T09:12:00;15.60;99.90
23669;DHT22;12011;47.422;15.018;2023-05-24T09:14:33;15.60;99.90
23669;DHT22;12011;47.422;15.018;2023-05-24T09:17:06;15.70;99.90
23669;DHT22;12011;47.422;15.018;2023-05-24T09:19:35;15.80;99.90
23669;DHT22;12011;47.422;15.018;2023-05-24T09:22:06;15.90;99.90
23669;DHT22;12011;47.422;15.018;2023-05-24T09:24:40;16.10;99.90
23669;DHT22;12011;47.422;15.018;2023-05-24T09:27:10;16.00;99.90
23669;DHT22;12011;47.422;15.018;2023-05-24T09:29:39;16.10;99.90
23669;DHT22;12011;47.422;15.018;2023-05-24T09:32:14;16.10;99.90
23669;DHT22;12011;47.422;15.018;2023-05-24T09:34:45;16.30;99.90
23669;DHT22;12011;47.422;15.018;2023-05-24T09:37:16;16.20;99.90
23669;DHT22;12011;47.422;15.018;2023-05-24T09:39:48;16.30;99.90
23669;DHT22;12011;47.422;15.018;2023-05-24T09:42:20;16.50;99.90
23669;DHT22;12011;47.422;15.018;2023-05-24T09:44:59;16.60;99.90
23669;DHT22;12011;47.422;15.018;2023-05-24T09:47:34;16.50;99.90
23669;DHT22;12011;47.422;15.018;2023-05-24T09:50:11;16.60;99.90
23669;DHT22;12011;47.422;15.018;2023-05-24T09:52:42;16.50;99.90
23669;DHT22;12011;47.422;15.018;2023-05-24T09:55:14;16.50;99.90
23669;DHT22;12011;47.422;15.018;2023-05-24T09:57:49;16.50;99.90
23669;DHT22;12011;47.422;15.018;2023-05-24T10:00:21;16.50;99.90
23669;DHT22;12011;47.422;15.018;2023-05-24T10:03:03;16.60;99.90
23669;DHT22;12011;47.422;15.018;2023-05-24T10:05:34;16.90;99.90
23669;DHT22;12011;47.422;15.018;2023-05-24T10:08:04;16.60;99.90
23669;DHT22;12011;47.422;15.018;2023-05-24T10:10:35;16.60;99.90
23669;DHT22;12011;47.422;15.018;2023-05-24T10:13:04;16.70;99.90
23669;DHT22;12011;47.422;15.018;2023-05-24T10:15:34;16.70;99.90
23669;DHT22;12011;47.422;15.018;2023-05-24T10:18:06;16.70;99.90
23669;DHT22;12011;47.422;15.018;2023-05-24T10:20:36;16.90;99.90
23669;DHT22;12011;47.422;15.018;2023-05-24T10:23:09;16.90;99.90
23669;DHT22;12011;47.422;15.018;2023-05-24T10:25:45;16.90;99.90
23669;DHT22;12011;47.422;15.018;2023-05-24T10:28:21;16.80;99.90
23669;DHT22;12011;47.422;15.018;2023-05-24T10:31:02;16.80;99.90
23669;DHT22;12011;47.422;15.018;2023-05-24T10:33:41;16.60;99.90
23669;DHT22;12011;47.422;15.018;2023-05-24T10:36:15;16.60;99.90
23669;DHT22;12011;47.422;15.018;2023-05-24T10:38:47;16.50;99.90
23669;DHT22;12011;47.422;15.018;2023-05-24T10:41:18;16.40;99.90
23669;DHT22;12011;47.422;15.018;2023-05-24T10:43:47;16.40;99.90
23669;DHT22;12011;47.422;15.018;2023-05-24T10:46:17;16.50;99.90
23669;DHT22;12011;47.422;15.018;2023-05-24T10:49:01;16.50;99.90
23669;DHT22;12011;47.422;15.018;2023-05-24T10:51:34;16.50;99.90
23669;DHT22;12011;47.422;15.018;2023-05-24T10:54:12;16.20;99.90
23669;DHT22;12011;47.422;15.018;2023-05-24T10:56:49;16.10;99.90
23669;DHT22;12011;47.422;15.018;2023-05-24T10:59:31;15.70;99.90
23669;DHT22;12011;47.422;15.018;2023-05-24T11:02:05;15.50;99.90
23669;DHT22;12011;47.422;15.018;2023-05-24T11:04:44;15.40;99.90
23669;DHT22;12011;47.422;15.018;2023-05-24T11:07:15;15.30;99.90
23669;DHT22;12011;47.422;15.018;2023-05-24T11:09:47;15.20;99.90
23669;DHT22;12011;47.422;15.018;2023-05-24T11:12:24;15.20;99.90
23669;DHT22;12011;47.422;15.018;2023-05-24T11:15:08;15.30;99.90
23669;DHT22;12011;47.422;15.018;2023-05-24T11:20:47;15.40;99.90
23669;DHT22;12011;47.422;15.018;2023-05-24T11:23:18;15.40;99.90
23669;DHT22;12011;47.422;15.018;2023-05-24T11:25:48;15.30;99.90
23669;DHT22;12011;47.422;15.018;2023-05-24T11:28:18;15.40;99.90
23669;DHT22;12011;47.422;15.018;2023-05-24T11:30:49;15.50;99.90
23669;DHT22;12011;47.422;15.018;2023-05-24T11:33:21;15.40;99.90
23669;DHT22;12011;47.422;15.018;2023-05-24T11:35:55;15.50;99.90
23669;DHT22;12011;47.422;15.018;2023-05-24T11:38:25;15.50;99.90
23669;DHT22;12011;47.422;15.018;2023-05-24T11:40:57;15.50;99.90
23669;DHT22;12011;47.422;15.018;2023-05-24T11:43:29;15.60;99.90
23669;DHT22;12011;47.422;15.018;2023-05-24T11:46:00;15.60;99.90
23669;DHT22;12011;47.422;15.018;2023-05-24T11:48:30;15.60;99.90
23669;DHT22;12011;47.422;15.018;2023-05-24T11:51:04;15.70;99.90
23669;DHT22;12011;47.422;15.018;2023-05-24T11:53:33;15.80;99.90
23669;DHT22;12011;47.422;15.018;2023-05-24T11:56:03;15.60;99.90
23669;DHT22;12011;47.422;15.018;2023-05-24T11:58:44;15.70;99.90
23669;DHT22;12011;47.422;15.018;2023-05-24T12:01:24;15.80;99.90
23669;DHT22;12011;47.422;15.018;2023-05-24T12:03:54;16.00;99.90
23669;DHT22;12011;47.422;15.018;2023-05-24T12:06:33;16.10;99.90
23669;DHT22;12011;47.422;15.018;2023-05-24T12:09:04;16.20;99.90
23669;DHT22;12011;47.422;15.018;2023-05-24T12:11:39;16.20;99.90
23669;DHT22;12011;47.422;15.018;2023-05-24T12:14:14;16.30;99.90
23669;DHT22;12011;47.422;15.018;2023-05-24T12:16:47;16.40;99.90
23669;DHT22;12011;47.422;15.018;2023-05-24T12:19:18;16.20;99.90
23669;DHT22;12011;47.422;15.018;2023-05-24T12:21:55;16.30;99.90
23669;DHT22;12011;47.422;15.018;2023-05-24T12:24:25;16.20;99.90
23669;DHT22;12011;47.422;15.018;2023-05-24T12:26:59;16.20;99.90
23669;DHT22;12011;47.422;15.018;2023-05-24T12:29:33;16.20;99.90
23669;DHT22;12011;47.422;15.018;2023-05-24T12:32:04;16.10;99.90
23669;DHT22;12011;47.422;15.018;2023-05-24T12:34:39;16.10;99.90
23669;DHT22;12011;47.422;15.018;2023-05-24T12:37:24;16.20;99.90
23669;DHT22;12011;47.422;15.018;2023-05-24T12:39:55;16.20;99.90
23669;DHT22;12011;47.422;15.018;2023-05-24T12:42:25;16.30;99.90
23669;DHT22;12011;47.422;15.018;2023-05-24T12:44:55;16.40;99.90
23669;DHT22;12011;47.422;15.018;2023-05-24T12:47:24;16.40;99.90
23669;DHT22;12011;47.422;15.018;2023-05-24T12:49:54;16.50;99.90
23669;DHT22;12011;47.422;15.018;2023-05-24T12:52:26;16.40;99.90
23669;DHT22;12011;47.422;15.018;2023-05-24T12:54:56;16.20;99.90
23669;DHT22;12011;47.422;15.018;2023-05-24T12:57:25;16.30;99.90
23669;DHT22;12011;47.422;15.018;2023-05-24T12:59:56;16.30;99.90
23669;DHT22;12011;47.422;15.018;2023-05-24T13:02:25;16.40;99.90
23669;DHT22;12011;47.422;15.018;2023-05-24T13:04:55;16.50;99.90
23669;DHT22;12011;47.422;15.018;2023-05-24T13:07:27;16.70;99.90
23669;DHT22;12011;47.422;15.018;2023-05-24T13:09:57;16.80;99.90
23669;DHT22;12011;47.422;15.018;2023-05-24T13:12:26;17.00;99.90
23669;DHT22;12011;47.422;15.018;2023-05-24T13:14:56;16.90;99.90
23669;DHT22;12011;47.422;15.018;2023-05-24T13:17:26;17.10;99.90
23669;DHT22;12011;47.422;15.018;2023-05-24T13:20:00;17.20;99.90
23669;DHT22;12011;47.422;15.018;2023-05-24T13:22:36;17.40;99.90
23669;DHT22;12011;47.422;15.018;2023-05-24T13:25:08;17.50;99.90
23669;DHT22;12011;47.422;15.018;2023-05-24T13:27:38;17.50;99.80
23669;DHT22;12011;47.422;15.018;2023-05-24T13:30:08;17.50;99.90
23669;DHT22;12011;47.422;15.018;2023-05-24T13:32:39;17.50;99.90
23669;DHT22;12011;47.422;15.018;2023-05-24T13:35:08;17.50;99.90
23669;DHT22;12011;47.422;15.018;2023-05-24T13:37:40;17.30;99.90
23669;DHT22;12011;47.422;15.018;2023-05-24T13:40:11;17.20;99.90
23669;DHT22;12011;47.422;15.018;2023-05-24T13:42:41;16.90;99.90
23669;DHT22;12011;47.422;15.018;2023-05-24T13:45:11;16.70;99.90
23669;DHT22;12011;47.422;15.018;2023-05-24T13:47:40;16.60;99.90
23669;DHT22;12011;47.422;15.018;2023-05-24T13:50:10;16.70;99.90
23669;DHT22;12011;47.422;15.018;2023-05-24T13:52:42;16.60;99.90
23669;DHT22;12011;47.422;15.018;2023-05-24T13:55:12;16.70;99.90
23669;DHT22;12011;47.422;15.018;2023-05-24T13:57:42;16.70;99.90
23669;DHT22;12011;47.422;15.018;2023-05-24T14:00:13;16.70;99.90
23669;DHT22;12011;47.422;15.018;2023-05-24T14:02:46;16.90;99.90
23669;DHT22;12011;47.422;15.018;2023-05-24T14:05:16;17.10;99.90
23669;DHT22;12011;47.422;15.018;2023-05-24T14:07:48;17.40;99.90
23669;DHT22;12011;47.422;15.018;2023-05-24T14:10:17;17.60;99.90
23669;DHT22;12011;47.422;15.018;2023-05-24T14:12:47;17.60;99.90
23669;DHT22;12011;47.422;15.018;2023-05-24T14:15:17;17.50;99.90
23669;DHT22;12011;47.422;15.018;2023-05-24T14:17:47;17.70;99.90
23669;DHT22;12011;47.422;15.018;2023-05-24T14:20:16;17.80;99.90
23669;DHT22;12011;47.422;15.018;2023-05-24T14:22:48;18.00;99.20
23669;DHT22;12011;47.422;15.018;2023-05-24T14:25:18;18.30;99.90
23669;DHT22;12011;47.422;15.018;2023-05-24T14:27:47;18.40;99.90
23669;DHT22;12011;47.422;15.018;2023-05-24T14:30:17;18.40;99.90
23669;DHT22;12011;47.422;15.018;2023-05-24T14:32:46;18.20;99.90
23669;DHT22;12011;47.422;15.018;2023-05-24T14:35:17;18.50;99.90
23669;DHT22;12011;47.422;15.018;2023-05-24T14:37:49;18.40;99.90
23669;DHT22;12011;47.422;15.018;2023-05-24T14:40:18;18.50;99.90
23669;DHT22;12011;47.422;15.018;2023-05-24T14:42:48;18.50;99.90
23669;DHT22;12011;47.422;15.018;2023-05-24T14:45:18;18.30;99.00
23669;DHT22;12011;47.422;15.018;2023-05-24T14:47:47;18.10;98.10
23669;DHT22;12011;47.422;15.018;2023-05-24T14:50:17;18.20;99.90
23669;DHT22;12011;47.422;15.018;2023-05-24T14:52:49;18.20;99.90
23669;DHT22;12011;47.422;15.018;2023-05-24T14:55:19;18.30;99.90
23669;DHT22;12011;47.422;15.018;2023-05-24T14:57:48;18.30;99.90
23669;DHT22;12011;47.422;15.018;2023-05-24T15:00:19;18.30;99.90
23669;DHT22;12011;47.422;15.018;2023-05-24T15:02:49;18.30;99.90
23669;DHT22;12011;47.422;15.018;2023-05-24T15:05:19;18.40;99.60
23669;DHT22;12011;47.422;15.018;2023-05-24T15:07:51;18.40;99.40
23669;DHT22;12011;47.422;15.018;2023-05-24T15:10:21;18.30;99.50
23669;DHT22;12011;47.422;15.018;2023-05-24T15:12:50;18.40;99.40
23669;DHT22;12011;47.422;15.018;2023-05-24T15:15:21;18.20;97.00
23669;DHT22;12011;47.422;15.018;2023-05-24T15:17:50;18.20;91.70
23669;DHT22;12011;47.422;15.018;2023-05-24T15:20:20;18.30;97.10
23669;DHT22;12011;47.422;15.018;2023-05-24T15:22:53;18.40;94.80
23669;DHT22;12011;47.422;15.018;2023-05-24T15:25:23;18.50;96.60
23669;DHT22;12011;47.422;15.018;2023-05-24T15:27:52;18.60;94.40
23669;DHT22;12011;47.422;15.018;2023-05-24T15:30:23;18.50;90.80
23669;DHT22;12011;47.422;15.018;2023-05-24T15:32:52;18.70;94.00
23669;DHT22;12011;47.422;15.018;2023-05-24T15:35:22;18.80;92.10
23669;DHT22;12011;47.422;15.018;2023-05-24T15:37:55;18.70;95.70
23669;DHT22;12011;47.422;15.018;2023-05-24T15:40:25;18.50;94.50
23669;DHT22;12011;47.422;15.018;2023-05-24T15:42:55;18.10;94.70
23669;DHT22;12011;47.422;15.018;2023-05-24T15:45:24;17.90;97.00